createdAt,value
2017-03-27T00:00:31.543Z,8.17
2017-03-27T00:01:31.052Z,9.20
2017-03-27T00:02:30.033Z,8.70
2017-03-27T00:03:29.084Z,9.13
2017-03-27T00:04:28.060Z,8.52
2017-03-27T00:05:27.064Z,9.62
2017-03-27T00:06:26.076Z,8.42
2017-03-27T00:07:25.174Z,8.32
2017-03-27T00:08:24.245Z,9.37
2017-03-27T00:09:22.877Z,8.92
2017-03-27T00:10:21.880Z,8.55
2017-03-27T00:11:20.918Z,8.73
2017-03-27T00:12:19.945Z,8.95
2017-03-27T00:13:18.961Z,9.18
2017-03-27T00:14:17.629Z,10.18
2017-03-27T00:15:16.679Z,8.10
2017-03-27T00:16:15.652Z,9.67
2017-03-27T00:17:14.707Z,8.87
2017-03-27T00:18:13.744Z,8.88
2017-03-27T00:19:12.889Z,9.08
2017-03-27T00:20:11.989Z,8.73
2017-03-27T00:21:11.075Z,9.25
2017-03-27T00:22:10.128Z,8.60
2017-03-27T00:23:09.266Z,9.58
2017-03-27T00:24:08.284Z,8.87
2017-03-27T00:25:07.348Z,9.22
2017-03-27T00:26:06.398Z,7.68
2017-03-27T00:27:05.508Z,8.47
2017-03-27T00:28:04.226Z,9.42
2017-03-27T00:29:03.158Z,8.55
2017-03-27T00:30:02.203Z,8.67
2017-03-27T00:31:01.190Z,8.43
2017-03-27T00:32:00.235Z,8.98
2017-03-27T00:32:59.288Z,8.35
2017-03-27T00:33:57.879Z,8.33
2017-03-27T00:34:56.512Z,8.78
2017-03-27T00:35:55.619Z,8.53
2017-03-27T00:36:54.592Z,8.90
2017-03-27T00:37:53.593Z,8.53
2017-03-27T00:38:53.845Z,8.73
2017-03-27T00:39:52.832Z,8.53
2017-03-27T00:40:51.809Z,8.80
2017-03-27T00:41:50.774Z,8.88
2017-03-27T00:42:49.747Z,8.13
2017-03-27T00:43:48.717Z,9.23
2017-03-27T00:44:47.775Z,8.40
2017-03-27T00:45:46.759Z,9.87
2017-03-27T00:46:45.812Z,8.73
2017-03-27T00:47:44.785Z,8.27
2017-03-27T00:48:43.761Z,8.58
2017-03-27T00:49:42.761Z,7.88
2017-03-27T00:50:42.153Z,8.35
2017-03-27T00:51:41.203Z,9.17
2017-03-27T00:52:40.213Z,8.53
2017-03-27T00:53:39.292Z,8.53
2017-03-27T00:54:38.236Z,10.33
2017-03-27T00:55:37.274Z,8.95
2017-03-27T00:56:36.232Z,8.52
2017-03-27T00:57:35.292Z,9.22
2017-03-27T00:58:34.280Z,8.72
2017-03-27T00:59:33.441Z,8.12
2017-03-27T01:00:32.508Z,9.05
2017-03-27T01:01:31.609Z,9.07
2017-03-27T01:02:30.584Z,9.20
2017-03-27T01:03:29.573Z,8.28
2017-03-27T01:04:28.576Z,9.37
2017-03-27T01:05:27.558Z,9.50
2017-03-27T01:06:26.603Z,8.48
2017-03-27T01:07:25.708Z,8.95
2017-03-27T01:08:24.740Z,10.23
2017-03-27T01:09:23.760Z,9.10
2017-03-27T01:10:22.825Z,7.65
2017-03-27T01:11:21.861Z,9.27
2017-03-27T01:12:20.927Z,9.12
2017-03-27T01:13:19.600Z,7.98
2017-03-27T01:14:18.758Z,9.17
2017-03-27T01:15:17.756Z,9.62
2017-03-27T01:16:16.798Z,8.82
2017-03-27T01:17:15.838Z,8.55
2017-03-27T01:18:14.945Z,9.30
2017-03-27T01:19:13.968Z,8.97
2017-03-27T01:20:13.104Z,8.40
2017-03-27T01:21:12.163Z,8.65
2017-03-27T01:22:11.199Z,9.50
2017-03-27T01:23:10.214Z,8.57
2017-03-27T01:24:08.829Z,8.38
2017-03-27T01:25:07.888Z,7.87
2017-03-27T01:26:07.088Z,8.90
2017-03-27T01:27:06.147Z,9.70
2017-03-27T01:28:05.189Z,8.00
2017-03-27T01:29:04.179Z,8.58
2017-03-27T01:30:02.722Z,9.35
2017-03-27T01:31:01.848Z,9.38
2017-03-27T01:32:00.881Z,9.02
2017-03-27T01:32:59.911Z,9.27
2017-03-27T01:33:58.959Z,8.28
2017-03-27T01:34:57.557Z,8.77
2017-03-27T01:35:56.523Z,8.90
2017-03-27T01:36:55.572Z,8.15
2017-03-27T01:37:54.590Z,8.65
2017-03-27T01:38:53.628Z,8.23
2017-03-27T01:39:52.591Z,9.18
2017-03-27T01:40:51.561Z,9.38
2017-03-27T01:41:50.628Z,8.93
2017-03-27T01:42:49.978Z,8.90
2017-03-27T01:43:48.971Z,8.75
2017-03-27T01:44:48.007Z,8.35
2017-03-27T01:45:46.996Z,9.40
2017-03-27T01:46:45.584Z,9.18
2017-03-27T01:47:44.596Z,9.38
2017-03-27T01:48:43.626Z,8.75
2017-03-27T01:49:42.340Z,9.10
2017-03-27T01:50:41.289Z,8.98
2017-03-27T01:51:40.316Z,9.55
2017-03-27T01:52:39.344Z,8.92
2017-03-27T01:53:37.936Z,8.28
2017-03-27T01:54:36.917Z,8.90
2017-03-27T01:55:35.508Z,9.33
2017-03-27T01:56:34.592Z,8.57
2017-03-27T01:57:33.608Z,9.13
2017-03-27T01:58:32.576Z,8.30
2017-03-27T01:59:31.154Z,8.32
2017-03-27T02:00:30.164Z,9.50
2017-03-27T02:01:29.151Z,8.55
2017-03-27T02:02:28.225Z,9.47
2017-03-27T02:03:27.229Z,9.38
2017-03-27T02:04:26.321Z,8.53
2017-03-27T02:05:25.681Z,8.67
2017-03-27T02:06:24.724Z,8.33
2017-03-27T02:07:23.836Z,8.57
2017-03-27T02:08:22.859Z,9.63
2017-03-27T02:09:22.255Z,9.08
2017-03-27T02:10:21.244Z,9.07
2017-03-27T02:11:20.632Z,8.45
2017-03-27T02:12:20.028Z,8.97
2017-03-27T02:13:19.006Z,9.72
2017-03-27T02:14:18.084Z,9.55
2017-03-27T02:15:16.728Z,9.63
2017-03-27T02:16:15.745Z,8.88
2017-03-27T02:17:14.858Z,8.77
2017-03-27T02:18:14.253Z,8.73
2017-03-27T02:19:13.323Z,9.07
2017-03-27T02:20:11.952Z,9.32
2017-03-27T02:21:11.027Z,8.27
2017-03-27T02:22:09.822Z,8.68
2017-03-27T02:23:09.227Z,8.60
2017-03-27T02:24:08.202Z,8.68
2017-03-27T02:25:07.324Z,9.77
2017-03-27T02:26:06.336Z,8.50
2017-03-27T02:27:05.352Z,8.98
2017-03-27T02:28:04.031Z,8.20
2017-03-27T02:29:02.998Z,8.07
2017-03-27T02:30:02.083Z,8.30
2017-03-27T02:31:01.136Z,8.73
2017-03-27T02:31:59.704Z,7.45
2017-03-27T02:32:58.712Z,8.05
2017-03-27T02:33:57.770Z,8.23
2017-03-27T02:34:56.760Z,8.87
2017-03-27T02:35:55.392Z,8.60
2017-03-27T02:36:54.345Z,8.52
2017-03-27T02:37:53.371Z,8.05
2017-03-27T02:38:51.926Z,8.23
2017-03-27T02:39:50.991Z,9.00
2017-03-27T02:40:50.055Z,8.32
2017-03-27T02:41:49.060Z,8.95
2017-03-27T02:42:48.780Z,10.10
2017-03-27T02:43:47.762Z,8.73
2017-03-27T02:44:46.760Z,8.10
2017-03-27T02:45:45.863Z,8.80
2017-03-27T02:46:44.444Z,8.02
2017-03-27T02:47:43.374Z,7.80
2017-03-27T02:48:42.449Z,9.07
2017-03-27T02:49:41.424Z,8.50
2017-03-27T02:50:40.412Z,9.80
2017-03-27T02:51:39.425Z,7.88
2017-03-27T02:52:38.443Z,8.40
2017-03-27T02:53:37.447Z,8.97
2017-03-27T02:54:36.868Z,8.30
2017-03-27T02:55:35.915Z,8.15
2017-03-27T02:56:34.958Z,7.93
2017-03-27T02:57:34.004Z,7.85
2017-03-27T02:58:32.998Z,10.43
2017-03-27T02:59:32.224Z,8.08
2017-03-27T03:00:31.189Z,8.27
2017-03-27T03:01:30.203Z,7.62
2017-03-27T03:02:29.200Z,7.68
2017-03-27T03:03:28.221Z,7.33
2017-03-27T03:04:27.267Z,8.05
2017-03-27T03:05:25.927Z,8.15
2017-03-27T03:06:24.909Z,8.38
2017-03-27T03:07:23.924Z,7.45
2017-03-27T03:08:22.962Z,7.25
2017-03-27T03:09:22.083Z,7.30
2017-03-27T03:10:21.119Z,8.35
2017-03-27T03:11:20.121Z,8.53
2017-03-27T03:12:19.472Z,6.52
2017-03-27T03:13:18.502Z,7.73
2017-03-27T03:14:17.512Z,6.37
2017-03-27T03:15:16.571Z,7.18
2017-03-27T03:16:15.142Z,7.57
2017-03-27T03:17:14.189Z,7.38
2017-03-27T03:18:13.231Z,7.63
2017-03-27T03:19:12.285Z,7.30
2017-03-27T03:20:11.291Z,7.13
2017-03-27T03:21:10.370Z,7.62
2017-03-27T03:22:09.429Z,7.58
2017-03-27T03:23:08.432Z,6.90
2017-03-27T03:24:07.471Z,6.50
2017-03-27T03:25:06.503Z,7.28
2017-03-27T03:26:05.524Z,7.70
2017-03-27T03:27:04.183Z,7.30
2017-03-27T03:28:03.192Z,6.62
2017-03-27T03:29:02.285Z,7.68
2017-03-27T03:30:01.297Z,6.90
2017-03-27T03:31:00.451Z,6.75
2017-03-27T03:31:59.404Z,7.63
2017-03-27T03:32:58.472Z,7.22
2017-03-27T03:33:57.459Z,7.72
2017-03-27T03:34:56.440Z,7.03
2017-03-27T03:35:55.419Z,7.08
2017-03-27T03:36:54.404Z,8.18
2017-03-27T03:37:53.372Z,6.60
2017-03-27T03:38:52.760Z,6.65
2017-03-27T03:39:51.733Z,6.97
2017-03-27T03:40:50.809Z,6.62
2017-03-27T03:41:49.791Z,6.92
2017-03-27T03:42:48.776Z,6.18
2017-03-27T03:43:47.797Z,7.17
2017-03-27T03:44:46.864Z,7.08
2017-03-27T03:45:45.932Z,6.73
2017-03-27T03:46:44.501Z,6.25
2017-03-27T03:47:43.510Z,6.87
2017-03-27T03:48:42.442Z,6.65
2017-03-27T03:49:41.443Z,7.02
2017-03-27T03:50:41.384Z,6.93
2017-03-27T03:51:40.373Z,6.83
2017-03-27T03:52:39.368Z,6.60
2017-03-27T03:53:38.356Z,6.95
2017-03-27T03:54:37.396Z,7.93
2017-03-27T03:55:36.364Z,7.93
2017-03-27T03:56:35.464Z,7.80
2017-03-27T03:57:34.492Z,6.43
2017-03-27T03:58:33.917Z,6.23
2017-03-27T03:59:33.131Z,7.32
2017-03-27T04:00:32.028Z,7.13
2017-03-27T04:01:30.632Z,7.08
2017-03-27T04:02:29.664Z,6.93
2017-03-27T04:03:28.296Z,6.47
2017-03-27T04:04:27.260Z,7.13
2017-03-27T04:05:26.287Z,6.85
2017-03-27T04:06:24.873Z,7.92
2017-03-27T04:07:24.288Z,9.30
2017-03-27T04:08:23.366Z,6.73
2017-03-27T04:09:22.314Z,7.22
2017-03-27T04:10:21.341Z,8.43
2017-03-27T04:11:20.417Z,7.48
2017-03-27T04:12:19.400Z,7.80
2017-03-27T04:13:18.431Z,7.48
2017-03-27T04:14:17.478Z,7.55
2017-03-27T04:15:16.449Z,7.45
2017-03-27T04:16:15.515Z,7.35
2017-03-27T04:17:14.492Z,8.05
2017-03-27T04:18:13.489Z,8.18
2017-03-27T04:19:12.899Z,7.87
2017-03-27T04:20:11.894Z,7.13
2017-03-27T04:21:10.523Z,8.05
2017-03-27T04:22:09.527Z,8.42
2017-03-27T04:23:08.532Z,9.30
2017-03-27T04:24:07.518Z,7.83
2017-03-27T04:25:06.105Z,7.63
2017-03-27T04:26:05.124Z,7.15
2017-03-27T04:27:03.732Z,7.10
2017-03-27T04:28:02.718Z,6.60
2017-03-27T04:29:02.083Z,7.63
2017-03-27T04:30:01.082Z,6.30
2017-03-27T04:31:00.446Z,8.85
2017-03-27T04:31:59.110Z,7.07
2017-03-27T04:32:58.060Z,8.30
2017-03-27T04:33:56.715Z,6.92
2017-03-27T04:34:55.725Z,7.35
2017-03-27T04:35:54.704Z,6.92
2017-03-27T04:36:53.711Z,7.67
2017-03-27T04:37:52.715Z,6.90
2017-03-27T04:38:51.716Z,6.95
2017-03-27T04:39:50.720Z,7.23
2017-03-27T04:40:50.058Z,8.92
2017-03-27T04:41:49.185Z,8.52
2017-03-27T04:42:47.828Z,7.72
2017-03-27T04:43:46.849Z,7.70
2017-03-27T04:44:45.835Z,7.85
2017-03-27T04:45:44.479Z,8.02
2017-03-27T04:46:43.008Z,7.37
2017-03-27T04:47:42.044Z,7.90
2017-03-27T04:48:41.042Z,8.30
2017-03-27T04:49:40.445Z,7.00
2017-03-27T04:50:39.488Z,7.73
2017-03-27T04:51:38.459Z,7.37
2017-03-27T04:52:37.433Z,7.28
2017-03-27T04:53:36.435Z,6.97
2017-03-27T04:54:35.412Z,8.00
2017-03-27T04:55:34.056Z,7.25
2017-03-27T04:56:33.016Z,7.25
2017-03-27T04:57:32.343Z,6.37
2017-03-27T04:58:31.364Z,7.58
2017-03-27T04:59:30.393Z,7.35
2017-03-27T05:00:29.389Z,7.52
2017-03-27T05:01:28.406Z,6.55
2017-03-27T05:02:27.835Z,7.85
2017-03-27T05:03:26.424Z,6.62
2017-03-27T05:04:25.491Z,6.82
2017-03-27T05:05:24.892Z,7.88
2017-03-27T05:06:24.252Z,6.87
2017-03-27T05:07:23.219Z,6.85
2017-03-27T05:08:22.245Z,7.15
2017-03-27T05:09:21.239Z,7.23
2017-03-27T05:10:20.257Z,7.62
2017-03-27T05:11:18.865Z,7.03
2017-03-27T05:12:17.898Z,7.05
2017-03-27T05:13:16.936Z,6.60
2017-03-27T05:14:15.980Z,7.70
2017-03-27T05:15:15.012Z,7.30
2017-03-27T05:16:14.051Z,6.95
2017-03-27T05:17:13.051Z,7.00
2017-03-27T05:18:12.144Z,7.43
2017-03-27T05:19:11.169Z,7.57
2017-03-27T05:20:10.537Z,7.63
2017-03-27T05:21:09.467Z,6.37
2017-03-27T05:22:08.141Z,6.80
2017-03-27T05:23:07.156Z,7.27
2017-03-27T05:24:06.153Z,8.02
2017-03-27T05:25:05.194Z,7.52
2017-03-27T05:26:04.219Z,7.13
2017-03-27T05:27:03.199Z,7.57
2017-03-27T05:28:02.188Z,7.88
2017-03-27T05:29:01.232Z,7.08
2017-03-27T05:30:00.256Z,7.58
2017-03-27T05:30:58.868Z,7.80
2017-03-27T05:31:57.880Z,7.80
2017-03-27T05:32:56.939Z,7.95
2017-03-27T05:33:55.968Z,7.80
2017-03-27T05:34:54.996Z,8.08
2017-03-27T05:35:53.976Z,7.53
2017-03-27T05:36:52.931Z,6.90
2017-03-27T05:37:51.915Z,7.75
2017-03-27T05:38:50.937Z,7.60
2017-03-27T05:39:49.906Z,7.82
2017-03-27T05:40:48.921Z,8.47
2017-03-27T05:41:47.928Z,7.77
2017-03-27T05:42:46.917Z,7.20
2017-03-27T05:43:45.908Z,7.80
2017-03-27T05:44:44.862Z,7.03
2017-03-27T05:45:43.867Z,8.03
2017-03-27T05:46:42.879Z,8.55
2017-03-27T05:47:41.856Z,7.43
2017-03-27T05:48:40.932Z,6.27
2017-03-27T05:49:39.901Z,6.95
2017-03-27T05:50:38.900Z,7.45
2017-03-27T05:51:37.880Z,7.20
2017-03-27T05:52:36.904Z,7.63
2017-03-27T05:53:36.353Z,7.20
2017-03-27T05:54:35.344Z,6.33
2017-03-27T05:55:34.343Z,7.42
2017-03-27T05:56:32.936Z,6.78
2017-03-27T05:57:31.931Z,7.17
2017-03-27T05:58:30.564Z,6.78
2017-03-27T05:59:29.548Z,8.53
2017-03-27T06:00:28.560Z,6.87
2017-03-27T06:01:27.195Z,7.13
2017-03-27T06:02:26.253Z,7.22
2017-03-27T06:03:24.881Z,6.85
2017-03-27T06:04:23.885Z,7.52
2017-03-27T06:05:22.898Z,7.50
2017-03-27T06:06:21.907Z,7.33
2017-03-27T06:07:20.857Z,6.88
2017-03-27T06:08:19.957Z,6.42
2017-03-27T06:09:19.000Z,6.93
2017-03-27T06:10:18.001Z,7.07
2017-03-27T06:11:17.378Z,7.85
2017-03-27T06:12:16.412Z,6.18
2017-03-27T06:13:16.168Z,6.90
2017-03-27T06:14:15.173Z,7.48
2017-03-27T06:15:14.204Z,5.98
2017-03-27T06:16:13.245Z,6.55
2017-03-27T06:17:11.824Z,6.87
2017-03-27T06:18:10.839Z,6.92
2017-03-27T06:19:09.795Z,7.92
2017-03-27T06:20:08.825Z,7.32
2017-03-27T06:21:07.802Z,7.33
2017-03-27T06:22:06.866Z,6.77
2017-03-27T06:23:05.444Z,6.65
2017-03-27T06:24:04.443Z,6.13
2017-03-27T06:25:03.415Z,7.88
2017-03-27T06:26:02.376Z,6.23
2017-03-27T06:27:01.016Z,6.55
2017-03-27T06:27:59.577Z,6.73
2017-03-27T06:28:58.712Z,7.10
2017-03-27T06:29:57.639Z,6.15
2017-03-27T06:30:56.652Z,7.15
2017-03-27T06:31:56.001Z,7.22
2017-03-27T06:32:55.008Z,6.55
2017-03-27T06:33:53.977Z,6.70
2017-03-27T06:34:52.569Z,8.33
2017-03-27T06:35:51.527Z,6.85
2017-03-27T06:36:50.763Z,7.10
2017-03-27T06:37:49.716Z,6.52
2017-03-27T06:38:48.678Z,6.42
2017-03-27T06:39:48.035Z,7.42
2017-03-27T06:40:46.743Z,8.08
2017-03-27T06:41:45.691Z,8.30
2017-03-27T06:42:44.638Z,6.72
2017-03-27T06:43:43.664Z,7.50
2017-03-27T06:44:42.622Z,7.80
2017-03-27T06:45:41.665Z,6.97
2017-03-27T06:46:40.704Z,7.55
2017-03-27T06:47:39.765Z,7.52
2017-03-27T06:48:38.807Z,7.18
2017-03-27T06:49:37.798Z,7.28
2017-03-27T06:50:36.791Z,7.35
2017-03-27T06:51:35.772Z,7.60
2017-03-27T06:52:34.785Z,7.67
2017-03-27T06:53:33.790Z,6.97
2017-03-27T06:54:32.787Z,7.02
2017-03-27T06:55:31.784Z,7.18
2017-03-27T06:56:30.753Z,7.20
2017-03-27T06:57:29.328Z,7.93
2017-03-27T06:58:28.396Z,8.10
2017-03-27T06:59:26.945Z,6.63
2017-03-27T07:00:25.968Z,7.88
2017-03-27T07:01:24.918Z,7.63
2017-03-27T07:02:24.341Z,8.27
2017-03-27T07:03:23.380Z,7.83
2017-03-27T07:04:22.391Z,7.48
2017-03-27T07:05:21.155Z,7.30
2017-03-27T07:06:20.524Z,7.08
2017-03-27T07:07:19.520Z,6.58
2017-03-27T07:08:18.196Z,7.33
2017-03-27T07:09:17.188Z,7.67
2017-03-27T07:10:16.194Z,8.45
2017-03-27T07:11:14.809Z,7.83
2017-03-27T07:12:13.780Z,7.95
2017-03-27T07:13:12.873Z,7.72
2017-03-27T07:14:11.903Z,8.20
2017-03-27T07:15:10.911Z,7.85
2017-03-27T07:16:09.893Z,7.27
2017-03-27T07:17:08.967Z,8.27
2017-03-27T07:18:08.043Z,8.17
2017-03-27T07:19:07.003Z,7.05
2017-03-27T07:20:06.018Z,7.87
2017-03-27T07:21:04.987Z,8.30
2017-03-27T07:22:04.040Z,7.87
2017-03-27T07:23:03.060Z,8.13
2017-03-27T07:24:02.078Z,6.62
2017-03-27T07:25:01.135Z,7.35
2017-03-27T07:26:00.142Z,7.72
2017-03-27T07:26:59.099Z,8.28
2017-03-27T07:27:58.100Z,7.88
2017-03-27T07:28:57.065Z,8.20
2017-03-27T07:29:56.157Z,7.93
2017-03-27T07:30:55.495Z,8.02
2017-03-27T07:31:54.508Z,7.50
2017-03-27T07:32:53.144Z,9.48
2017-03-27T07:33:52.116Z,8.40
2017-03-27T07:34:50.759Z,7.35
2017-03-27T07:35:49.712Z,8.10
2017-03-27T07:36:48.664Z,8.35
2017-03-27T07:37:47.626Z,7.93
2017-03-27T07:38:46.240Z,8.92
2017-03-27T07:39:44.859Z,7.85
2017-03-27T07:40:43.818Z,7.78
2017-03-27T07:41:42.863Z,7.27
2017-03-27T07:42:41.856Z,7.67
2017-03-27T07:43:40.824Z,7.45
2017-03-27T07:44:39.828Z,7.75
2017-03-27T07:45:38.824Z,7.60
2017-03-27T07:46:37.785Z,7.33
2017-03-27T07:47:36.812Z,8.35
2017-03-27T07:48:35.778Z,8.00
2017-03-27T07:49:35.199Z,7.87
2017-03-27T07:50:33.830Z,7.97
2017-03-27T07:51:32.817Z,7.70
2017-03-27T07:52:31.794Z,7.22
2017-03-27T07:53:30.412Z,7.53
2017-03-27T07:54:29.109Z,6.23
2017-03-27T07:55:28.155Z,7.55
2017-03-27T07:56:26.787Z,8.13
2017-03-27T07:57:25.840Z,7.87
2017-03-27T07:58:24.865Z,7.72
2017-03-27T07:59:23.802Z,7.48
2017-03-27T08:00:23.005Z,7.18
2017-03-27T08:01:21.966Z,7.38
2017-03-27T08:02:20.996Z,7.33
2017-03-27T08:03:19.586Z,6.48
2017-03-27T08:04:18.689Z,6.82
2017-03-27T08:05:17.711Z,6.75
2017-03-27T08:06:16.717Z,7.47
2017-03-27T08:07:15.773Z,7.52
2017-03-27T08:08:14.827Z,6.60
2017-03-27T08:09:13.833Z,6.87
2017-03-27T08:10:12.829Z,7.53
2017-03-27T08:11:11.867Z,8.07
2017-03-27T08:12:10.421Z,6.58
2017-03-27T08:13:09.440Z,7.70
2017-03-27T08:14:08.471Z,7.78
2017-03-27T08:15:07.855Z,6.45
2017-03-27T08:16:06.947Z,8.00
2017-03-27T08:17:06.619Z,7.60
2017-03-27T08:18:05.595Z,7.98
2017-03-27T08:19:04.208Z,6.90
2017-03-27T08:20:02.773Z,7.35
2017-03-27T08:21:01.811Z,7.05
2017-03-27T08:22:00.827Z,7.97
2017-03-27T08:22:59.428Z,7.73
2017-03-27T08:23:58.011Z,7.53
2017-03-27T08:24:56.602Z,6.82
2017-03-27T08:25:55.571Z,6.88
2017-03-27T08:26:54.578Z,7.37
2017-03-27T08:27:53.284Z,8.55
2017-03-27T08:28:52.264Z,8.10
2017-03-27T08:29:51.263Z,7.47
2017-03-27T08:30:49.821Z,6.73
2017-03-27T08:31:48.832Z,7.78
2017-03-27T08:32:47.400Z,6.87
2017-03-27T08:33:46.397Z,7.48
2017-03-27T08:34:45.439Z,7.42
2017-03-27T08:35:44.448Z,6.53
2017-03-27T08:36:43.465Z,7.50
2017-03-27T08:37:42.783Z,7.65
2017-03-27T08:38:41.748Z,7.12
2017-03-27T08:39:40.804Z,7.15
2017-03-27T08:40:39.818Z,7.42
2017-03-27T08:41:38.509Z,8.23
2017-03-27T08:42:37.536Z,7.33
2017-03-27T08:43:36.591Z,7.85
2017-03-27T08:44:35.596Z,6.95
2017-03-27T08:45:34.572Z,7.88
2017-03-27T08:46:33.648Z,7.80
2017-03-27T08:47:32.264Z,7.50
2017-03-27T08:48:30.834Z,7.20
2017-03-27T08:49:29.863Z,7.95
2017-03-27T08:50:28.876Z,7.37
2017-03-27T08:51:27.874Z,7.62
2017-03-27T08:52:26.911Z,8.03
2017-03-27T08:53:26.663Z,7.08
2017-03-27T08:54:25.364Z,7.62
2017-03-27T08:55:24.432Z,7.65
2017-03-27T08:56:23.423Z,7.07
2017-03-27T08:57:22.651Z,7.90
2017-03-27T08:58:21.308Z,7.95
2017-03-27T08:59:20.325Z,7.48
2017-03-27T09:00:19.285Z,7.35
2017-03-27T09:01:18.379Z,7.07
2017-03-27T09:02:17.387Z,7.92
2017-03-27T09:03:16.406Z,8.03
2017-03-27T09:04:15.098Z,7.42
2017-03-27T09:05:14.140Z,7.28
2017-03-27T09:06:12.736Z,8.18
2017-03-27T09:07:11.807Z,7.68
2017-03-27T09:08:10.321Z,7.40
2017-03-27T09:09:09.380Z,7.12
2017-03-27T09:10:08.339Z,8.17
2017-03-27T09:11:07.011Z,7.00
2017-03-27T09:12:05.655Z,7.58
2017-03-27T09:13:04.295Z,7.37
2017-03-27T09:14:03.235Z,7.55
2017-03-27T09:15:02.270Z,7.27
2017-03-27T09:16:01.232Z,6.72
2017-03-27T09:17:00.231Z,7.72
2017-03-27T09:17:59.284Z,6.55
2017-03-27T09:18:58.399Z,7.87
2017-03-27T09:19:57.380Z,8.00
2017-03-27T09:20:56.445Z,7.15
2017-03-27T09:21:55.003Z,7.05
2017-03-27T09:22:54.221Z,7.10
2017-03-27T09:23:53.285Z,8.22
2017-03-27T09:24:52.207Z,7.90
2017-03-27T09:25:50.848Z,7.47
2017-03-27T09:26:49.472Z,9.57
2017-03-27T09:27:48.456Z,8.70
2017-03-27T09:28:47.070Z,8.90
2017-03-27T09:29:46.023Z,8.75
2017-03-27T09:30:45.027Z,7.65
2017-03-27T09:31:43.982Z,7.03
2017-03-27T09:32:42.939Z,7.73
2017-03-27T09:33:41.995Z,8.12
2017-03-27T09:34:41.043Z,8.00
2017-03-27T09:35:40.043Z,8.02
2017-03-27T09:36:38.583Z,8.13
2017-03-27T09:37:37.608Z,8.25
2017-03-27T09:38:36.624Z,8.15
2017-03-27T09:39:35.655Z,7.80
2017-03-27T09:40:34.607Z,7.75
2017-03-27T09:41:33.625Z,6.90
2017-03-27T09:42:32.569Z,6.50
2017-03-27T09:43:32.379Z,7.90
2017-03-27T09:44:31.373Z,7.73
2017-03-27T09:45:30.482Z,8.78
2017-03-27T09:46:29.107Z,7.12
2017-03-27T09:47:28.145Z,7.92
2017-03-27T09:48:27.124Z,8.15
2017-03-27T09:49:26.084Z,7.50
2017-03-27T09:50:25.064Z,7.20
2017-03-27T09:51:24.059Z,8.37
2017-03-27T09:52:23.339Z,7.53
2017-03-27T09:53:22.328Z,7.57
2017-03-27T09:54:21.371Z,7.80
2017-03-27T09:55:20.000Z,7.63
2017-03-27T09:56:18.677Z,8.23
2017-03-27T09:57:17.692Z,6.63
2017-03-27T09:58:16.683Z,8.10
2017-03-27T09:59:15.700Z,7.93
2017-03-27T10:00:15.147Z,7.38
2017-03-27T10:01:14.257Z,7.52
2017-03-27T10:02:13.266Z,7.98
2017-03-27T10:03:12.335Z,8.12
2017-03-27T10:04:11.712Z,8.03
2017-03-27T10:05:10.713Z,8.57
2017-03-27T10:06:09.683Z,8.70
2017-03-27T10:07:08.314Z,7.63
2017-03-27T10:08:06.882Z,8.10
2017-03-27T10:09:05.989Z,8.85
2017-03-27T10:10:04.986Z,8.25
2017-03-27T10:11:04.379Z,8.33
2017-03-27T10:12:03.452Z,7.63
2017-03-27T10:13:02.435Z,8.12
2017-03-27T10:14:01.079Z,7.90
2017-03-27T10:15:00.088Z,8.07
2017-03-27T10:15:59.144Z,6.85
2017-03-27T10:16:58.119Z,7.62
2017-03-27T10:17:56.735Z,7.53
2017-03-27T10:18:55.712Z,8.68
2017-03-27T10:19:54.704Z,8.23
2017-03-27T10:20:53.299Z,7.83
2017-03-27T10:21:51.896Z,7.90
2017-03-27T10:22:50.872Z,7.88
2017-03-27T10:23:49.894Z,7.77
2017-03-27T10:24:48.872Z,7.37
2017-03-27T10:25:47.951Z,7.72
2017-03-27T10:26:46.995Z,8.07
2017-03-27T10:27:45.996Z,7.60
2017-03-27T10:28:45.004Z,7.67
2017-03-27T10:29:44.004Z,7.68
2017-03-27T10:30:42.978Z,7.68
2017-03-27T10:31:42.031Z,8.15
2017-03-27T10:32:40.984Z,7.92
2017-03-27T10:33:39.993Z,9.45
2017-03-27T10:34:38.996Z,7.73
2017-03-27T10:35:37.975Z,7.18
2017-03-27T10:36:36.571Z,7.80
2017-03-27T10:37:35.592Z,7.63
2017-03-27T10:38:34.581Z,7.82
2017-03-27T10:39:33.184Z,8.75
2017-03-27T10:40:32.187Z,8.00
2017-03-27T10:41:31.155Z,7.80
2017-03-27T10:42:30.179Z,7.83
2017-03-27T10:43:29.296Z,7.87
2017-03-27T10:44:28.260Z,8.20
2017-03-27T10:45:27.269Z,7.78
2017-03-27T10:46:26.259Z,7.75
2017-03-27T10:47:25.068Z,8.18
2017-03-27T10:48:24.067Z,9.48
2017-03-27T10:49:23.088Z,8.28
2017-03-27T10:50:22.075Z,7.97
2017-03-27T10:51:21.135Z,7.50
2017-03-27T10:52:19.820Z,8.45
2017-03-27T10:53:19.263Z,7.83
2017-03-27T10:54:17.878Z,8.55
2017-03-27T10:55:16.947Z,7.75
2017-03-27T10:56:15.967Z,8.32
2017-03-27T10:57:14.930Z,7.40
2017-03-27T10:58:14.007Z,7.98
2017-03-27T10:59:12.994Z,7.58
2017-03-27T11:00:12.000Z,8.03
2017-03-27T11:01:10.751Z,8.45
2017-03-27T11:02:09.784Z,7.42
2017-03-27T11:03:08.780Z,7.08
2017-03-27T11:04:07.871Z,7.83
2017-03-27T11:05:06.916Z,6.47
2017-03-27T11:06:05.895Z,7.95
2017-03-27T11:07:04.952Z,7.10
2017-03-27T11:08:03.985Z,7.68
2017-03-27T11:09:02.692Z,7.17
2017-03-27T11:10:02.078Z,7.83
2017-03-27T11:11:01.100Z,7.97
2017-03-27T11:12:00.120Z,7.75
2017-03-27T11:12:59.181Z,8.27
2017-03-27T11:13:58.172Z,6.83
2017-03-27T11:14:57.126Z,6.67
2017-03-27T11:15:56.073Z,6.82
2017-03-27T11:16:54.732Z,7.00
2017-03-27T11:17:53.765Z,6.60
2017-03-27T11:18:52.787Z,7.02
2017-03-27T11:19:51.787Z,6.45
2017-03-27T11:20:50.728Z,6.47
2017-03-27T11:21:49.723Z,8.18
2017-03-27T11:22:48.747Z,7.25
2017-03-27T11:23:47.796Z,6.85
2017-03-27T11:24:46.889Z,7.28
2017-03-27T11:25:46.022Z,6.70
2017-03-27T11:26:45.011Z,7.83
2017-03-27T11:27:43.971Z,7.95
2017-03-27T11:28:42.522Z,6.43
2017-03-27T11:29:41.476Z,5.60
2017-03-27T11:30:40.511Z,6.95
2017-03-27T11:31:39.491Z,6.53
2017-03-27T11:32:38.435Z,6.13
2017-03-27T11:33:38.251Z,6.13
2017-03-27T11:34:36.783Z,6.53
2017-03-27T11:35:35.816Z,6.30
2017-03-27T11:36:34.769Z,6.27
2017-03-27T11:37:33.845Z,5.23
2017-03-27T11:38:32.832Z,5.75
2017-03-27T11:39:31.955Z,5.87
2017-03-27T11:40:31.122Z,5.80
2017-03-27T11:41:30.166Z,5.67
2017-03-27T11:42:29.176Z,5.67
2017-03-27T11:43:28.241Z,6.28
2017-03-27T11:44:27.663Z,5.88
2017-03-27T11:45:26.789Z,5.63
2017-03-27T11:46:25.787Z,6.35
2017-03-27T11:47:24.909Z,5.63
2017-03-27T11:48:24.015Z,5.38
2017-03-27T11:49:23.049Z,5.55
2017-03-27T11:50:21.743Z,5.30
2017-03-27T11:51:20.353Z,5.85
2017-03-27T11:52:19.605Z,5.97
2017-03-27T11:53:18.879Z,5.75
2017-03-27T11:54:18.127Z,6.50
2017-03-27T11:55:17.195Z,4.98
2017-03-27T11:56:16.373Z,5.60
2017-03-27T11:57:15.433Z,5.38
2017-03-27T11:58:14.407Z,6.42
2017-03-27T11:59:13.371Z,5.07
2017-03-27T12:00:12.429Z,4.90
2017-03-27T12:01:11.476Z,5.85
2017-03-27T12:02:10.500Z,5.15
2017-03-27T12:03:09.543Z,5.03
2017-03-27T12:04:08.624Z,5.47
2017-03-27T12:05:07.632Z,4.70
2017-03-27T12:06:06.265Z,5.35
2017-03-27T12:07:05.360Z,5.20
2017-03-27T12:08:04.070Z,5.58
2017-03-27T12:09:03.073Z,4.87
2017-03-27T12:10:02.407Z,5.80
2017-03-27T12:11:01.412Z,6.18
2017-03-27T12:12:00.402Z,6.10
2017-03-27T12:12:59.425Z,5.48
2017-03-27T12:14:57.420Z,5.98
2017-03-27T12:15:56.445Z,5.72
2017-03-27T12:16:55.432Z,5.23
2017-03-27T12:17:54.466Z,6.45
2017-03-27T12:18:53.543Z,5.73
2017-03-27T12:19:52.527Z,5.60
2017-03-27T12:20:51.520Z,5.62
2017-03-27T12:21:50.489Z,5.42
2017-03-27T12:22:49.103Z,5.63
2017-03-27T12:23:48.091Z,5.57
2017-03-27T12:24:47.453Z,5.52
2017-03-27T12:25:46.435Z,5.67
2017-03-27T12:26:45.428Z,6.17
2017-03-27T12:27:44.438Z,7.22
2017-03-27T12:28:43.449Z,5.98
2017-03-27T12:29:42.582Z,6.35
2017-03-27T12:30:41.567Z,5.93
2017-03-27T12:31:40.592Z,5.67
2017-03-27T12:32:39.604Z,5.65
2017-03-27T12:33:38.607Z,6.08
2017-03-27T12:34:37.632Z,5.18
2017-03-27T12:35:36.675Z,5.88
2017-03-27T12:36:35.647Z,5.18
2017-03-27T12:37:34.691Z,6.92
2017-03-27T12:38:33.739Z,6.75
2017-03-27T12:39:32.738Z,7.02
2017-03-27T12:40:31.835Z,6.87
2017-03-27T12:41:30.807Z,5.53
2017-03-27T12:42:29.356Z,5.68
2017-03-27T12:43:28.650Z,5.38
2017-03-27T12:44:27.634Z,5.58
2017-03-27T12:45:26.252Z,6.20
2017-03-27T12:46:24.896Z,6.00
2017-03-27T12:47:23.935Z,5.53
2017-03-27T12:48:22.540Z,5.45
2017-03-27T12:49:21.572Z,5.47
2017-03-27T12:50:20.576Z,5.20
2017-03-27T12:51:19.627Z,6.17
2017-03-27T12:52:18.181Z,5.80
2017-03-27T12:53:17.261Z,6.15
2017-03-27T12:54:16.273Z,6.17
2017-03-27T12:55:15.307Z,5.75
2017-03-27T12:56:14.348Z,5.43
2017-03-27T12:57:13.409Z,5.78
2017-03-27T12:58:12.396Z,6.07
2017-03-27T12:59:11.017Z,5.78
2017-03-27T13:00:10.046Z,5.15
2017-03-27T13:01:09.058Z,5.67
2017-03-27T13:02:08.158Z,5.00
2017-03-27T13:03:07.156Z,5.98
2017-03-27T13:04:06.235Z,5.67
2017-03-27T13:05:05.299Z,5.40
2017-03-27T13:06:04.359Z,6.35